Time;durP1;ratioP1;P1;durP2;ratioP2;P2;SDS_P1;SDS_P2;PMS_P1;PMS_P2;Temp;Humidity;BMP_temperature;BMP_pressure;BME280_temperature;BME280_humidity;BME280_pressure;Samples;Min_cycle;Max_cycle;Signal;HPM_P1;HPM_P2
2023/02/10 00:04:23;;;;;;;;;;;;;;;13.74;29.00;97274.16;10458313;28;2042;-51
2023/02/10 00:09:23;;;;;;;;;;;;;;;13.73;29.01;97275.16;10456897;28;2043;-53
2023/02/10 00:14:24;;;;;;;;;;;;;;;13.74;28.97;97289.00;10454966;28;2041;-53
2023/02/10 00:19:24;;;;;;;;;;;;;;;13.72;29.05;97289.16;10447885;28;1982;-50
2023/02/10 00:24:25;;;;;;;;;;;;;;;13.72;28.98;97286.56;10423454;28;2011;-51
2023/02/10 00:29:25;;;;;;;;;;;;;;;13.72;29.02;97298.81;10428394;28;2059;-49
2023/02/10 00:34:27;;;;;;;;;;;;;;;13.72;28.83;97314.44;10410040;28;1962;-52
2023/02/10 00:39:27;;;;;;;;;;;;;;;13.71;28.98;97315.44;10409128;28;2167;-53
2023/02/10 00:44:28;;;;;;;;;;;;;;;13.71;28.93;97315.44;10411444;28;2126;-49
2023/02/10 00:49:28;;;;;;;;;;;;;;;13.70;28.87;97319.81;10410279;28;2037;-52
2023/02/10 00:54:28;;;;;;;;;;;;;;;13.68;28.82;97319.22;10417509;28;2003;-50
2023/02/10 00:59:28;;;;;;;;;;;;;;;13.67;28.97;97322.84;10421815;28;1999;-53
2023/02/10 01:04:29;;;;;;;;;;;;;;;13.68;29.00;97326.25;10419742;28;2101;-52
2023/02/10 01:09:29;;;;;;;;;;;;;;;13.67;28.99;97325.44;10416979;28;2116;-51
2023/02/10 01:14:29;;;;;;;;;;;;;;;13.67;28.94;97335.84;10418580;28;2065;-50
2023/02/10 01:19:29;;;;;;;;;;;;;;;13.64;28.99;97331.03;10420619;28;2032;-53
2023/02/10 01:24:30;;;;;;;;;;;;;;;13.64;28.99;97336.22;10414618;28;2045;-52
2023/02/10 01:29:30;;;;;;;;;;;;;;;13.64;28.99;97335.44;10417080;28;1987;-52
2023/02/10 01:34:31;;;;;;;;;;;;;;;13.64;28.94;97335.44;10424144;28;2109;-53
2023/02/10 01:39:31;;;;;;;;;;;;;;;13.63;28.86;97333.81;10423694;28;1931;-51
2023/02/10 01:44:31;;;;;;;;;;;;;;;13.63;29.03;97336.44;10423416;28;2117;-53
2023/02/10 01:49:33;;;;;;;;;;;;;;;13.61;28.85;97347.06;10414097;28;2206;-53
2023/02/10 01:54:35;;;;;;;;;;;;;;;13.61;28.88;97352.25;10409218;28;2160;-50
2023/02/10 01:59:35;;;;;;;;;;;;;;;13.60;29.00;97355.84;10426011;28;2056;-51
2023/02/10 02:04:37;;;;;;;;;;;;;;;13.60;28.97;97355.06;10422822;28;2055;-48
2023/02/10 02:09:37;;;;;;;;;;;;;;;13.59;28.93;97354.25;10421117;28;2051;-51
2023/02/10 02:14:45;;;;;;;;;;;;;;;13.59;28.65;97358.66;10420218;28;2003;-50
2023/02/10 02:20:40;;;;;;;;;;;;;;;13.58;28.75;97367.47;10418228;28;2019;-51
2023/02/10 02:25:31;;;;;;;;;;;;;;;13.58;28.93;97370.09;10450321;28;2070;-51
2023/02/10 02:30:50;;;;;;;;;;;;;;;13.57;28.83;97373.66;10457389;28;1922;-52
2023/02/10 02:35:55;;;;;;;;;;;;;;;13.56;28.74;97369.47;10454896;28;2036;-51
2023/02/10 02:40:55;;;;;;;;;;;;;;;13.56;28.87;97372.06;10467007;28;2106;-50
2023/02/10 02:45:58;;;;;;;;;;;;;;;13.55;28.64;97378.25;10451181;28;2097;-51
2023/02/10 02:51:04;;;;;;;;;;;;;;;13.54;28.95;97377.44;10457100;28;1990;-54
2023/02/10 02:56:10;;;;;;;;;;;;;;;13.53;28.76;97369.84;10452763;28;2114;-54
2023/02/10 03:01:12;;;;;;;;;;;;;;;13.53;28.92;97372.44;10454927;28;1939;-53
2023/02/10 03:06:12;;;;;;;;;;;;;;;13.53;28.74;97375.84;10451879;28;2017;-53
2023/02/10 03:11:12;;;;;;;;;;;;;;;13.52;28.83;97370.81;10458116;28;2152;-51
2023/02/10 03:16:13;;;;;;;;;;;;;;;13.50;28.81;97363.19;10453773;28;2013;-52
2023/02/10 03:21:13;;;;;;;;;;;;;;;13.50;28.82;97380.63;10446888;28;2085;-49
2023/02/10 03:26:13;;;;;;;;;;;;;;;13.49;28.75;97373.81;10411589;28;2038;-50
2023/02/10 03:31:13;;;;;;;;;;;;;;;13.48;28.91;97373.00;10396690;28;2182;-52
2023/02/10 03:36:14;;;;;;;;;;;;;;;13.49;28.93;97373.81;10424672;28;1979;-54
2023/02/10 03:41:14;;;;;;;;;;;;;;;13.48;28.88;97385.22;10416385;28;2047;-51
2023/02/10 03:46:14;;;;;;;;;;;;;;;13.47;28.77;97383.63;10413444;28;1973;-52
2023/02/10 03:51:15;;;;;;;;;;;;;;;13.46;28.86;97385.41;10410308;28;2127;-49
2023/02/10 03:56:15;;;;;;;;;;;;;;;13.46;28.96;97389.81;10421474;28;2059;-49
2023/02/10 04:01:15;;;;;;;;;;;;;;;13.43;28.79;97383.19;10418716;28;1950;-54
2023/02/10 04:06:16;;;;;;;;;;;;;;;13.44;28.91;97379.59;10414496;28;2020;-52
2023/02/10 04:11:16;;;;;;;;;;;;;;;13.43;28.78;97379.78;10423174;28;2167;-54
2023/02/10 04:16:16;;;;;;;;;;;;;;;13.42;28.94;97392.00;10423731;28;1977;-52
2023/02/10 04:21:17;;;;;;;;;;;;;;;13.41;28.89;97392.19;10415736;28;1999;-52
2023/02/10 04:26:17;;;;;;;;;;;;;;;13.41;28.83;97400.00;10418515;28;2048;-54
2023/02/10 04:31:17;;;;;;;;;;;;;;;13.38;28.84;97392.56;10420606;28;2055;-49
2023/02/10 04:36:17;;;;;;;;;;;;;;;13.39;28.98;97407.19;10415708;28;2120;-51
2023/02/10 04:41:18;;;;;;;;;;;;;;;13.38;28.79;97409.00;10420089;28;2046;-52
2023/02/10 04:46:18;;;;;;;;;;;;;;;13.38;28.74;97410.78;10426077;28;2034;-53
2023/02/10 04:51:18;;;;;;;;;;;;;;;13.38;28.74;97416.00;10419344;28;2078;-52
2023/02/10 04:56:19;;;;;;;;;;;;;;;13.37;28.80;97415.22;10417571;28;2033;-51
2023/02/10 05:01:19;;;;;;;;;;;;;;;13.35;28.80;97419.00;10418534;28;2114;-51
2023/02/10 05:06:19;;;;;;;;;;;;;;;13.36;28.75;97412.78;10417687;28;2000;-54
2023/02/10 05:11:19;;;;;;;;;;;;;;;13.34;28.77;97419.97;10424364;28;2087;-55
2023/02/10 05:16:20;;;;;;;;;;;;;;;13.34;28.91;97422.56;10417551;28;2013;-49
2023/02/10 05:21:20;;;;;;;;;;;;;;;13.33;28.86;97432.22;10418291;28;2117;-51
2023/02/10 05:26:20;;;;;;;;;;;;;;;13.33;28.92;97431.41;10416281;28;2003;-54
2023/02/10 05:31:20;;;;;;;;;;;;;;;13.32;28.89;97443.59;10414270;28;2070;-51
2023/02/10 05:36:21;;;;;;;;;;;;;;;13.32;28.84;97445.38;10415573;28;2112;-53
2023/02/10 05:41:21;;;;;;;;;;;;;;;13.30;28.64;97449.97;10411481;28;2405;-49
2023/02/10 05:46:21;;;;;;;;;;;;;;;13.29;28.78;97453.59;10414410;28;2050;-53
2023/02/10 05:51:22;;;;;;;;;;;;;;;13.28;28.84;97457.19;10418227;28;2069;-51
2023/02/10 05:56:22;;;;;;;;;;;;;;;13.28;28.80;97460.59;10419560;28;2169;-52
2023/02/10 06:01:22;;;;;;;;;;;;;;;13.28;28.87;97472.81;10422373;28;2003;-55
2023/02/10 06:06:23;;;;;;;;;;;;;;;13.26;28.94;97477.38;10416994;28;1988;-51
2023/02/10 06:11:23;;;;;;;;;;;;;;;13.26;28.87;97480.00;10419188;28;2019;-54
2023/02/10 06:16:23;;;;;;;;;;;;;;;13.27;28.72;97479.00;10425700;28;2096;-53
2023/02/10 06:21:23;;;;;;;;;;;;;;;13.23;28.90;97482.97;10413184;28;2058;-51
2023/02/10 06:26:24;;;;;;;;;;;;;;;13.23;28.72;97477.78;10422145;28;2023;-49
2023/02/10 06:31:25;;;;;;;;;;;;;;;13.22;28.74;97489.97;10417858;28;1902;-51
2023/02/10 06:36:25;;;;;;;;;;;;;;;13.23;28.87;97493.41;10412217;28;2051;-51
2023/02/10 06:41:25;;;;;;;;;;;;;;;13.21;28.82;97496.16;10416200;28;2190;-51
2023/02/10 06:46:25;;;;;;;;;;;;;;;13.20;28.74;97507.59;10415625;28;2051;-54
2023/02/10 06:51:26;;;;;;;;;;;;;;;13.20;28.80;97515.41;10420477;28;2121;-47
2023/02/10 06:56:26;;;;;;;;;;;;;;;13.20;28.84;97514.59;10410431;28;2024;-53
2023/02/10 07:01:26;;;;;;;;;;;;;;;13.19;28.75;97528.59;10417275;28;2062;-51
2023/02/10 07:06:27;;;;;;;;;;;;;;;13.19;28.81;97520.81;10409777;28;2095;-52
2023/02/10 07:11:27;;;;;;;;;;;;;;;13.18;28.77;97532.19;10410712;28;1957;-54
2023/02/10 07:16:28;;;;;;;;;;;;;;;13.18;28.89;97526.97;10415598;28;2165;-51
2023/02/10 07:21:28;;;;;;;;;;;;;;;13.17;28.89;97535.81;10429667;28;2205;-48
2023/02/10 07:26:28;;;;;;;;;;;;;;;13.18;28.66;97553.03;10412665;28;2053;-54
2023/02/10 07:31:29;;;;;;;;;;;;;;;13.16;28.83;97548.00;10425141;28;1978;-54
2023/02/10 07:36:29;;;;;;;;;;;;;;;13.17;28.94;97548.81;10419781;28;2000;-51
2023/02/10 07:41:29;;;;;;;;;;;;;;;13.17;28.81;97546.22;10411354;28;2072;-53
2023/02/10 07:46:29;;;;;;;;;;;;;;;13.17;28.83;97561.84;10411463;28;2100;-54
2023/02/10 07:51:30;;;;;;;;;;;;;;;13.17;28.85;97562.63;10392103;28;2059;-49
2023/02/10 07:56:30;;;;;;;;;;;;;;;13.17;28.94;97567.03;10417994;28;2075;-50
2023/02/10 08:01:30;;;;;;;;;;;;;;;13.16;28.76;97575.84;10419856;28;2055;-49
2023/02/10 08:06:30;;;;;;;;;;;;;;;13.16;28.91;97574.03;10413054;28;1937;-52
2023/02/10 08:11:31;;;;;;;;;;;;;;;13.17;29.04;97577.47;10413497;28;2023;-54
2023/02/10 08:16:31;;;;;;;;;;;;;;;13.17;29.10;97574.84;10420105;28;1976;-52
2023/02/10 08:21:31;;;;;;;;;;;;;;;13.17;28.99;97574.84;10414194;28;1942;-52
2023/02/10 08:26:32;;;;;;;;;;;;;;;13.17;29.09;97569.66;10422580;28;2042;-48
2023/02/10 08:31:32;;;;;;;;;;;;;;;13.17;29.12;97586.06;10409006;28;2112;-52
2023/02/10 08:36:32;;;;;;;;;;;;;;;13.17;29.22;97577.47;10411652;28;2065;-52
2023/02/10 08:41:33;;;;;;;;;;;;;;;13.17;29.27;97572.25;10411949;28;2108;-49
2023/02/10 08:46:33;;;;;;;;;;;;;;;13.18;29.30;97573.84;10410655;28;1984;-52
2023/02/10 08:51:33;;;;;;;;;;;;;;;13.18;29.27;97581.66;10407845;28;1993;-52
2023/02/10 08:56:34;;;;;;;;;;;;;;;13.18;29.48;97579.06;10410353;28;2020;-52
2023/02/10 09:01:34;;;;;;;;;;;;;;;13.18;29.75;97581.66;10413715;28;2091;-53
2023/02/10 09:06:38;;;;;;;;;;;;;;;13.19;29.75;97585.91;10416002;28;2031;-49
2023/02/10 09:11:39;;;;;;;;;;;;;;;13.18;29.67;97579.88;10403745;28;2042;-53
2023/02/10 09:16:39;;;;;;;;;;;;;;;13.20;29.88;97590.91;10420107;28;2013;-52
2023/02/10 09:21:39;;;;;;;;;;;;;;;13.20;29.90;97593.53;10406497;28;2087;-52
2023/02/10 09:26:40;;;;;;;;;;;;;;;13.22;29.75;97590.72;10413189;28;2212;-49
2023/02/10 09:31:40;;;;;;;;;;;;;;;13.21;29.91;97591.72;10415079;28;1994;-51
2023/02/10 09:36:42;;;;;;;;;;;;;;;13.22;29.77;97599.34;10399450;28;2207;-53
2023/02/10 09:41:48;;;;;;;;;;;;;;;13.23;29.83;97605.38;10415403;28;2101;-54
2023/02/10 09:47:06;;;;;;;;;;;;;;;13.23;30.00;97607.97;10400101;28;2110;-51
2023/02/10 09:52:06;;;;;;;;;;;;;;;13.24;30.03;97612.19;10415670;28;2001;-53
2023/02/10 09:57:14;;;;;;;;;;;;;;;13.24;29.79;97613.00;10422411;28;1962;-49
2023/02/10 10:02:28;;;;;;;;;;;;;;;13.26;29.91;97607.59;10423095;28;2123;-55
2023/02/10 10:07:35;;;;;;;;;;;;;;;13.25;29.86;97604.19;10415617;28;2060;-53
2023/02/10 10:12:35;;;;;;;;;;;;;;;13.25;29.89;97600.78;10413106;28;2090;-54
2023/02/10 10:17:36;;;;;;;;;;;;;;;13.27;29.90;97611.81;10424168;28;2183;-52
2023/02/10 10:22:36;;;;;;;;;;;;;;;13.27;29.76;97598.81;10418425;28;2114;-49
2023/02/10 10:27:52;;;;;;;;;;;;;;;13.28;29.97;97592.59;10422100;28;2068;-49
2023/02/10 10:32:52;;;;;;;;;;;;;;;13.29;29.90;97594.22;10423903;28;1984;-54
2023/02/10 10:37:52;;;;;;;;;;;;;;;13.29;29.94;97579.38;10430198;28;1955;-53
2023/02/10 10:42:58;;;;;;;;;;;;;;;13.30;29.94;97588.00;10432810;28;1570;-51
2023/02/10 10:48:09;;;;;;;;;;;;;;;13.32;29.93;97581.63;10395678;28;2065;-48
2023/02/10 10:53:16;;;;;;;;;;;;;;;13.32;29.95;97571.22;10411590;28;2021;-52
2023/02/10 10:58:19;;;;;;;;;;;;;;;13.34;29.93;97563.22;10411881;28;2085;-50
2023/02/10 11:03:19;;;;;;;;;;;;;;;13.35;30.02;97555.25;10425698;28;2045;-52
2023/02/10 11:08:23;;;;;;;;;;;;;;;13.35;29.84;97544.81;10423063;28;1950;-51
2023/02/10 11:13:27;;;;;;;;;;;;;;;13.37;30.06;97535.03;10425794;28;1907;-52
2023/02/10 11:18:28;;;;;;;;;;;;;;;13.39;29.94;97527.81;10403807;28;2476;-49
2023/02/10 11:23:28;;;;;;;;;;;;;;;13.39;30.14;97525.22;10408295;28;1986;-51
2023/02/10 11:28:29;;;;;;;;;;;;;;;13.41;30.10;97522.44;10420215;28;2089;-52
2023/02/10 11:33:30;;;;;;;;;;;;;;;13.43;30.17;97515.22;10415824;28;1934;-53
2023/02/10 11:38:31;;;;;;;;;;;;;;;13.44;30.19;97514.22;10432051;28;2005;-51
2023/02/10 11:43:32;;;;;;;;;;;;;;;13.46;30.19;97509.63;10430816;28;2159;-54
2023/02/10 11:48:33;;;;;;;;;;;;;;;13.45;30.17;97506.25;10392709;28;1962;-52
2023/02/10 11:53:34;;;;;;;;;;;;;;;13.48;30.36;97505.03;10416715;28;1966;-50
2023/02/10 11:58:59;;;;;;;;;;;;;;;13.49;30.23;97493.66;10390592;28;1955;-50
2023/02/10 12:04:03;;;;;;;;;;;;;;;13.51;30.29;97483.84;10415411;28;2021;-52
2023/02/10 12:09:23;;;;;;;;;;;;;;;13.52;30.17;97488.03;10416053;28;1987;-51
2023/02/10 12:14:26;;;;;;;;;;;;;;;13.54;30.17;97491.31;10418284;28;1911;-52
2023/02/10 12:19:45;;;;;;;;;;;;;;;13.55;30.09;97482.47;10420091;28;1979;-51
2023/02/10 12:24:55;;;;;;;;;;;;;;;13.55;30.17;97491.09;10414103;28;1961;-54
2023/02/10 12:29:55;;;;;;;;;;;;;;;13.58;29.98;97482.13;10393916;28;1923;-53
2023/02/10 12:35:00;;;;;;;;;;;;;;;13.59;30.06;97487.13;10407928;28;1915;-51
2023/02/10 12:40:19;;;;;;;;;;;;;;;13.61;30.02;97473.91;10383443;28;2039;-51
2023/02/10 12:45:31;;;;;;;;;;;;;;;13.60;30.20;97475.69;10394624;28;1964;-49
2023/02/10 12:50:40;;;;;;;;;;;;;;;13.61;30.07;97466.09;10418289;28;2108;-54
2023/02/10 12:55:41;;;;;;;;;;;;;;;13.64;30.24;97466.50;10415158;28;2034;-52
2023/02/10 13:00:46;;;;;;;;;;;;;;;13.64;30.29;97466.50;10422523;28;2029;-53
2023/02/10 13:05:56;;;;;;;;;;;;;;;13.66;30.11;97455.94;10429120;28;2049;-52
2023/02/10 13:10:58;;;;;;;;;;;;;;;13.69;30.17;97460.75;10405326;28;2092;-52
2023/02/10 13:16:04;;;;;;;;;;;;;;;13.71;30.18;97453.53;10418592;28;2085;-51
2023/02/10 13:21:14;;;;;;;;;;;;;;;13.74;30.19;97448.78;10428009;28;2049;-52
2023/02/10 13:26:26;;;;;;;;;;;;;;;13.79;30.10;97441.19;10411127;28;2106;-51
2023/02/10 13:31:45;;;;;;;;;;;;;;;13.87;30.18;97435.00;10426698;28;1997;-51
2023/02/10 13:36:49;;;;;;;;;;;;;;;13.93;30.22;97444.69;10424175;28;2022;-51
2023/02/10 13:41:50;;;;;;;;;;;;;;;14.01;30.24;97441.13;10399796;28;2089;-50
2023/02/10 13:46:58;;;;;;;;;;;;;;;14.05;30.56;97442.34;10427920;28;2048;-48
2023/02/10 13:51:59;;;;;;;;;;;;;;;14.06;30.44;97442.16;10424041;28;1978;-51
2023/02/10 13:56:59;;;;;;;;;;;;;;;14.08;30.37;97440.16;10417863;28;1907;-48
2023/02/10 14:02:00;;;;;;;;;;;;;;;14.08;30.13;97437.56;10425731;28;2039;-49
2023/02/10 14:07:00;;;;;;;;;;;;;;;14.10;30.35;97440.78;10427890;28;2126;-51
2023/02/10 14:12:01;;;;;;;;;;;;;;;14.15;30.65;97433.19;10422354;28;2063;-47
2023/02/10 14:17:02;;;;;;;;;;;;;;;14.23;29.97;97430.44;10402208;28;2040;-49
2023/02/10 14:22:02;;;;;;;;;;;;;;;14.25;30.00;97433.66;10416970;28;2083;-51
2023/02/10 14:27:03;;;;;;;;;;;;;;;14.23;29.84;97434.84;10422457;28;1904;-52
2023/02/10 14:32:04;;;;;;;;;;;;;;;14.15;30.13;97438.41;10417049;28;2080;-50
2023/02/10 14:37:20;;;;;;;;;;;;;;;14.08;30.45;97448.00;10433095;28;2082;-50
2023/02/10 14:42:21;;;;;;;;;;;;;;;14.07;30.19;97454.22;10411533;28;1958;-49
2023/02/10 14:47:23;;;;;;;;;;;;;;;14.02;30.15;97445.34;10395625;28;2216;-53
2023/02/10 14:52:28;;;;;;;;;;;;;;;13.97;30.17;97439.91;10411803;28;1951;-52
2023/02/10 14:57:30;;;;;;;;;;;;;;;13.93;30.31;97433.47;10415219;28;2148;-48
2023/02/10 15:02:30;;;;;;;;;;;;;;;13.89;30.50;97438.22;10413060;28;1959;-51
2023/02/10 15:07:31;;;;;;;;;;;;;;;13.86;30.40;97436.84;10427089;28;1951;-47
2023/02/10 15:12:34;;;;;;;;;;;;;;;13.82;30.55;97433.00;10417356;28;2105;-51
2023/02/10 15:17:44;;;;;;;;;;;;;;;13.80;30.68;97439.38;10413785;28;1983;-53
2023/02/10 15:22:57;;;;;;;;;;;;;;;13.75;30.54;97436.53;10412174;28;1965;-49
2023/02/10 15:27:57;;;;;;;;;;;;;;;13.73;30.62;97449.75;10418643;28;1997;-51
2023/02/10 15:32:58;;;;;;;;;;;;;;;13.71;30.68;97445.72;10399469;28;1966;-52
2023/02/10 15:37:58;;;;;;;;;;;;;;;13.67;30.66;97447.91;10424515;28;1975;-50
2023/02/10 15:43:03;;;;;;;;;;;;;;;13.65;30.52;97451.69;10418377;28;1969;-48
2023/02/10 15:48:06;;;;;;;;;;;;;;;13.64;30.62;97452.69;10425183;28;1961;-51
2023/02/10 15:53:19;;;;;;;;;;;;;;;13.63;30.53;97448.47;10415971;28;2066;-48
2023/02/10 15:58:19;;;;;;;;;;;;;;;13.60;30.57;97449.66;10411577;28;2072;-51
2023/02/10 16:03:20;;;;;;;;;;;;;;;13.59;30.67;97462.88;10419236;28;1952;-50
2023/02/10 16:08:20;;;;;;;;;;;;;;;13.58;30.65;97476.91;10415619;28;1978;-49
2023/02/10 16:13:21;;;;;;;;;;;;;;;13.55;30.67;97467.66;10403530;28;2117;-53
2023/02/10 16:18:21;;;;;;;;;;;;;;;13.56;30.48;97486.72;10419628;28;1990;-49
2023/02/10 16:23:22;;;;;;;;;;;;;;;13.54;30.61;97484.28;10411377;28;2049;-51
2023/02/10 16:28:22;;;;;;;;;;;;;;;13.51;30.54;97479.44;10413571;28;2025;-48
2023/02/10 16:33:22;;;;;;;;;;;;;;;13.50;30.65;97485.63;10419212;28;2014;-48
2023/02/10 16:38:22;;;;;;;;;;;;;;;13.50;30.64;97490.84;10427945;28;2042;-50
2023/02/10 16:43:23;;;;;;;;;;;;;;;13.48;30.54;97499.84;10425508;28;1962;-49
2023/02/10 16:48:23;;;;;;;;;;;;;;;13.47;30.65;97504.25;10422261;28;2314;-51
2023/02/10 16:53:23;;;;;;;;;;;;;;;13.46;30.59;97501.81;10422460;28;1943;-51
2023/02/10 16:58:23;;;;;;;;;;;;;;;13.44;30.46;97502.00;10422881;28;2136;-50
2023/02/10 17:03:24;;;;;;;;;;;;;;;13.44;30.53;97514.22;10416772;28;1970;-53
2023/02/10 17:08:25;;;;;;;;;;;;;;;13.44;30.52;97511.63;10424313;28;1957;-51
2023/02/10 17:13:25;;;;;;;;;;;;;;;13.43;30.57;97515.22;10427895;28;2012;-52
2023/02/10 17:18:25;;;;;;;;;;;;;;;13.42;30.55;97519.63;10419313;28;1981;-51
2023/02/10 17:23:26;;;;;;;;;;;;;;;13.42;30.50;97524.03;10432822;28;2063;-52
2023/02/10 17:28:26;;;;;;;;;;;;;;;13.41;30.48;97528.44;10399089;28;2154;-50
2023/02/10 17:33:29;;;;;;;;;;;;;;;13.40;30.62;97524.22;10414306;28;2061;-53
2023/02/10 17:43:48;;;;;;;;;;;;;;;13.38;30.41;97533.19;10418736;28;2009;-53
2023/02/10 17:48:49;;;;;;;;;;;;;;;13.38;30.41;97536.63;10422280;28;1978;-55
2023/02/10 17:53:49;;;;;;;;;;;;;;;13.38;30.48;97543.63;10417854;28;2025;-52
2023/02/10 17:58:50;;;;;;;;;;;;;;;13.37;30.46;97550.66;10415196;28;1985;-53
2023/02/10 18:03:50;;;;;;;;;;;;;;;13.36;30.39;97549.03;10434126;28;2015;-52
2023/02/10 18:08:51;;;;;;;;;;;;;;;13.35;30.51;97541.41;10406624;28;1935;-47
2023/02/10 18:13:51;;;;;;;;;;;;;;;13.35;30.42;97544.00;10405771;28;2029;-51
2023/02/10 18:18:51;;;;;;;;;;;;;;;13.35;30.32;97546.59;10413836;28;1977;-49
2023/02/10 18:23:52;;;;;;;;;;;;;;;13.33;30.49;97535.56;10441299;28;1978;-50
2023/02/10 18:28:52;;;;;;;;;;;;;;;13.34;30.23;97537.16;10456439;28;2026;-51
2023/02/10 18:33:52;;;;;;;;;;;;;;;13.31;30.21;97532.34;10457799;28;1970;-47
2023/02/10 18:38:52;;;;;;;;;;;;;;;13.32;30.26;97531.34;10460560;28;1906;-50
2023/02/10 18:43:53;;;;;;;;;;;;;;;13.29;30.32;97529.13;10459192;28;1976;-52
2023/02/10 18:48:54;;;;;;;;;;;;;;;13.31;30.43;97527.13;10457537;28;1942;-52
2023/02/10 18:53:55;;;;;;;;;;;;;;;13.31;30.40;97524.53;10459163;28;2047;-50
2023/02/10 18:58:55;;;;;;;;;;;;;;;13.30;30.32;97525.50;10463297;28;1977;-51
2023/02/10 19:04:02;;;;;;;;;;;;;;;13.30;30.39;97515.91;10454570;28;1953;-51
2023/02/10 19:09:02;;;;;;;;;;;;;;;13.30;30.27;97513.28;10447250;28;2078;-53
2023/02/10 19:14:03;;;;;;;;;;;;;;;13.28;30.38;97525.69;10466305;28;2006;-54
2023/02/10 19:19:04;;;;;;;;;;;;;;;13.28;30.20;97515.28;10490180;28;2203;-52
2023/02/10 19:24:04;;;;;;;;;;;;;;;13.28;30.34;97520.50;10449154;28;1689;-53
2023/02/10 19:29:05;;;;;;;;;;;;;;;13.27;30.30;97521.47;10435552;28;1371;-50
2023/02/10 19:34:07;;;;;;;;;;;;;;;13.28;30.43;97527.50;10431076;28;2026;-50
2023/02/10 19:39:12;;;;;;;;;;;;;;;13.27;30.37;97531.09;10417200;28;1977;-52
2023/02/10 19:44:14;;;;;;;;;;;;;;;13.27;30.34;97539.69;10393545;28;2050;-52
2023/02/10 19:49:14;;;;;;;;;;;;;;;13.26;30.34;97539.88;10412822;28;1966;-51
2023/02/10 19:54:16;;;;;;;;;;;;;;;13.26;30.22;97535.50;10426556;28;2021;-52
2023/02/10 19:59:16;;;;;;;;;;;;;;;13.26;30.28;97529.47;10420759;28;1919;-55
2023/02/10 20:04:17;;;;;;;;;;;;;;;13.24;30.15;97534.88;10409452;28;2037;-49
2023/02/10 20:09:17;;;;;;;;;;;;;;;13.24;30.33;97541.88;10397475;28;2089;-49
2023/02/10 20:14:18;;;;;;;;;;;;;;;13.25;30.27;97543.50;10426236;28;1907;-48
2023/02/10 20:19:18;;;;;;;;;;;;;;;13.23;30.31;97546.25;10392234;28;2041;-53
2023/02/10 20:24:18;;;;;;;;;;;;;;;13.23;30.24;97550.69;10409358;28;2018;-50
2023/02/10 20:29:18;;;;;;;;;;;;;;;13.24;30.27;97544.47;10422315;28;1966;-52
2023/02/10 20:34:19;;;;;;;;;;;;;;;13.22;30.13;97543.84;10412008;28;1914;-52
2023/02/10 20:39:19;;;;;;;;;;;;;;;13.21;30.32;97547.47;10427654;28;2352;-54
2023/02/10 20:44:19;;;;;;;;;;;;;;;13.22;30.28;97551.66;10414708;28;2046;-51
2023/02/10 20:49:20;;;;;;;;;;;;;;;13.21;30.29;97552.66;10415310;28;2109;-52
2023/02/10 20:54:20;;;;;;;;;;;;;;;13.22;30.29;97556.88;10420885;28;2053;-50
2023/02/10 20:59:20;;;;;;;;;;;;;;;13.21;30.28;97552.66;10416629;28;2163;-52
2023/02/10 21:04:20;;;;;;;;;;;;;;;13.21;30.16;97555.28;10421642;28;1959;-53
2023/02/10 21:09:21;;;;;;;;;;;;;;;13.20;30.24;97559.66;10425066;28;1986;-53
2023/02/10 21:14:21;;;;;;;;;;;;;;;13.19;30.27;97547.63;10412806;28;2047;-51
2023/02/10 21:19:21;;;;;;;;;;;;;;;13.17;30.30;97544.41;10421887;28;1966;-48
2023/02/10 21:24:23;;;;;;;;;;;;;;;13.18;30.23;97547.81;10415911;28;2080;-51
2023/02/10 21:29:24;;;;;;;;;;;;;;;13.18;30.26;97540.00;10421342;28;2046;-51
2023/02/10 21:34:24;;;;;;;;;;;;;;;13.17;30.27;97530.59;10420816;28;2104;-55
2023/02/10 21:39:24;;;;;;;;;;;;;;;13.17;30.16;97523.56;10423319;28;2152;-52
2023/02/10 21:44:27;;;;;;;;;;;;;;;13.16;30.14;97514.16;10418802;28;1994;-53
2023/02/10 21:49:27;;;;;;;;;;;;;;;13.17;30.15;97507.16;10434923;28;1883;-50
2023/02/10 21:54:27;;;;;;;;;;;;;;;13.16;30.19;97501.13;10430408;28;1505;-52
2023/02/10 21:59:28;;;;;;;;;;;;;;;13.16;30.23;97493.31;10441486;28;1902;-54
2023/02/10 22:04:28;;;;;;;;;;;;;;;13.15;30.13;97477.91;10429451;28;1994;-50
2023/02/10 22:09:28;;;;;;;;;;;;;;;13.14;30.26;97482.28;10422166;28;1951;-53
2023/02/10 22:14:29;;;;;;;;;;;;;;;13.14;29.97;97491.88;10413080;28;2085;-53
2023/02/10 22:19:29;;;;;;;;;;;;;;;13.15;30.19;97488.31;10427965;28;1989;-51
2023/02/10 22:24:29;;;;;;;;;;;;;;;13.13;30.24;97475.44;10416661;28;2025;-49
2023/02/10 22:29:29;;;;;;;;;;;;;;;13.13;30.16;97482.47;10397262;28;2093;-50
2023/02/10 22:34:30;;;;;;;;;;;;;;;13.14;30.02;97484.06;10411138;28;2044;-51
2023/02/10 22:39:30;;;;;;;;;;;;;;;13.13;30.12;97483.25;10428593;28;1997;-51
2023/02/10 22:44:31;;;;;;;;;;;;;;;13.13;30.12;97485.09;10411213;28;2118;-50
2023/02/10 22:49:31;;;;;;;;;;;;;;;13.12;30.13;97486.06;10411602;28;2143;-49
2023/02/10 22:54:31;;;;;;;;;;;;;;;13.11;30.05;97490.44;10412205;28;2014;-51
2023/02/10 22:59:32;;;;;;;;;;;;;;;13.12;30.03;97483.47;10416046;28;2014;-50
2023/02/10 23:04:32;;;;;;;;;;;;;;;13.11;29.99;97487.06;10416560;28;2049;-49
2023/02/10 23:09:32;;;;;;;;;;;;;;;13.11;29.88;97479.25;10422825;28;2053;-52
2023/02/10 23:14:33;;;;;;;;;;;;;;;13.08;29.96;97476.00;10421088;28;1947;-50
2023/02/10 23:19:33;;;;;;;;;;;;;;;13.08;30.12;97470.78;10418963;28;2109;-48
2023/02/10 23:24:33;;;;;;;;;;;;;;;13.08;29.84;97476.00;10417305;28;1974;-50
2023/02/10 23:29:33;;;;;;;;;;;;;;;13.08;30.03;97477.81;10393643;28;2014;-49
2023/02/10 23:34:34;;;;;;;;;;;;;;;13.08;30.00;97476.00;10417339;28;2012;-52
2023/02/10 23:39:34;;;;;;;;;;;;;;;13.07;29.98;97473.59;10400397;28;2008;-52
2023/02/10 23:44:34;;;;;;;;;;;;;;;13.07;30.13;97479.63;10415547;28;1950;-51
2023/02/10 23:49:35;;;;;;;;;;;;;;;13.07;29.95;97479.63;10397664;28;1918;-52
2023/02/10 23:54:35;;;;;;;;;;;;;;;13.06;30.00;97480.59;10415878;28;1931;-51
2023/02/10 23:59:35;;;;;;;;;;;;;;;13.06;29.88;97477.97;10415704;28;1965;-52
